createdAt,value
2023-03-22T00:02:15.042Z,47.02
2023-03-22T00:04:44.901Z,46.92
2023-03-22T00:07:12.986Z,46.97
2023-03-22T00:09:41.003Z,46.88
2023-03-22T00:12:09.117Z,47.03
2023-03-22T00:14:37.193Z,46.84
2023-03-22T00:17:05.244Z,46.72
2023-03-22T00:19:34.009Z,46.75
2023-03-22T00:22:07.563Z,46.69
2023-03-22T00:24:38.717Z,46.59
2023-03-22T00:27:06.714Z,46.48
2023-03-22T00:29:34.665Z,46.53
2023-03-22T00:32:02.802Z,46.64
2023-03-22T00:34:32.434Z,46.52
2023-03-22T00:37:00.505Z,46.33
2023-03-22T00:39:30.125Z,46.43
2023-03-22T00:41:58.230Z,46.30
2023-03-22T00:44:26.179Z,46.33
2023-03-22T00:46:54.347Z,46.20
2023-03-22T00:49:22.356Z,46.24
2023-03-22T00:51:50.350Z,46.20
2023-03-22T00:54:18.296Z,46.21
2023-03-22T00:56:50.014Z,46.11
2023-03-22T00:59:18.008Z,45.97
2023-03-22T01:01:45.960Z,45.92
2023-03-22T01:04:18.115Z,46.31
2023-03-22T01:06:47.148Z,46.11
2023-03-22T01:09:15.254Z,46.11
2023-03-22T01:11:43.716Z,46.21
2023-03-22T01:14:13.797Z,46.24
2023-03-22T01:16:41.905Z,46.46
2023-03-22T01:19:09.907Z,46.29
2023-03-22T01:21:37.855Z,46.51
2023-03-22T01:24:06.175Z,46.58
2023-03-22T01:26:34.164Z,46.62
2023-03-22T01:29:02.047Z,46.61
2023-03-22T01:31:31.330Z,46.68
2023-03-22T01:33:59.316Z,46.56
2023-03-22T01:36:27.364Z,46.58
2023-03-22T01:38:55.213Z,46.72
2023-03-22T01:41:23.292Z,46.53
2023-03-22T01:44:12.292Z,46.66
2023-03-22T01:46:42.379Z,46.45
2023-03-22T01:49:13.849Z,46.41
2023-03-22T01:51:43.892Z,46.40
2023-03-22T01:54:15.346Z,46.40
2023-03-22T01:56:43.808Z,46.37
2023-03-22T01:59:15.313Z,46.31
2023-03-22T02:01:47.100Z,46.36
2023-03-22T02:04:17.885Z,46.28
2023-03-22T02:06:47.190Z,46.22
2023-03-22T02:09:18.207Z,46.09
2023-03-22T02:11:58.558Z,46.24
2023-03-22T02:14:53.522Z,46.13
2023-03-22T02:17:34.494Z,46.01
2023-03-22T02:20:40.083Z,46.04
2023-03-22T02:23:17.834Z,45.95
2023-03-22T02:26:14.225Z,46.09
2023-03-22T02:28:54.749Z,46.06
2023-03-22T02:31:48.732Z,46.05
2023-03-22T02:34:48.570Z,45.91
2023-03-22T02:37:39.873Z,46.07
2023-03-22T02:40:16.840Z,45.96
2023-03-22T02:42:54.708Z,46.04
2023-03-22T02:45:31.270Z,45.82
2023-03-22T02:48:07.795Z,46.01
2023-03-22T02:50:42.116Z,45.82
2023-03-22T02:53:17.307Z,45.82
2023-03-22T02:55:52.222Z,45.84
2023-03-22T02:58:24.112Z,45.86
2023-03-22T03:00:57.129Z,45.87
2023-03-22T03:03:29.331Z,45.90
2023-03-22T03:06:08.451Z,45.62
2023-03-22T03:08:38.180Z,45.84
2023-03-22T03:11:08.186Z,45.78
2023-03-22T03:13:36.180Z,45.87
2023-03-22T03:16:07.561Z,45.94
2023-03-22T03:18:45.797Z,45.94
2023-03-22T03:21:24.963Z,45.81
2023-03-22T03:23:59.076Z,45.83
2023-03-22T03:26:39.956Z,45.84
2023-03-22T03:29:15.881Z,45.83
2023-03-22T03:31:49.963Z,45.65
2023-03-22T03:34:20.934Z,45.69
2023-03-22T03:36:54.469Z,45.69
2023-03-22T03:39:25.788Z,45.79
2023-03-22T03:41:57.311Z,45.75
2023-03-22T03:44:25.863Z,45.76
2023-03-22T03:46:55.010Z,45.96
2023-03-22T03:49:24.970Z,45.80
2023-03-22T03:51:54.940Z,45.70
2023-03-22T03:54:23.391Z,45.59
2023-03-22T03:56:51.342Z,45.73
2023-03-22T03:59:21.829Z,45.79
2023-03-22T04:01:52.922Z,45.61
2023-03-22T04:04:26.662Z,45.65
2023-03-22T04:06:56.843Z,45.63
2023-03-22T04:09:25.651Z,45.58
2023-03-22T04:11:53.560Z,45.60
2023-03-22T04:14:23.169Z,45.56
2023-03-22T04:16:54.559Z,45.57
2023-03-22T04:19:22.808Z,45.46
2023-03-22T04:21:53.191Z,45.60
2023-03-22T04:24:22.109Z,45.36
2023-03-22T04:26:50.211Z,45.57
2023-03-22T04:29:18.151Z,45.66
2023-03-22T04:31:47.396Z,45.54
2023-03-22T04:34:15.318Z,45.54
2023-03-22T04:36:45.133Z,45.46
2023-03-22T04:39:13.693Z,45.51
2023-03-22T04:41:41.628Z,45.50
2023-03-22T04:44:10.404Z,45.42
2023-03-22T04:46:38.924Z,45.51
2023-03-22T04:49:08.374Z,45.45
2023-03-22T04:51:36.373Z,45.48
2023-03-22T04:54:04.348Z,45.47
2023-03-22T04:56:32.229Z,45.39
2023-03-22T04:59:00.164Z,45.34
2023-03-22T05:01:28.174Z,45.46
2023-03-22T05:03:56.267Z,45.25
2023-03-22T05:06:25.528Z,45.38
2023-03-22T05:08:53.500Z,45.36
2023-03-22T05:11:21.983Z,45.51
2023-03-22T05:13:49.900Z,45.32
2023-03-22T05:16:17.895Z,45.33
2023-03-22T05:18:45.933Z,45.13
2023-03-22T05:21:22.103Z,45.23
2023-03-22T05:23:51.683Z,45.17
2023-03-22T05:26:20.428Z,45.22
2023-03-22T05:28:48.453Z,45.02
2023-03-22T05:31:17.133Z,45.16
2023-03-22T05:33:46.776Z,45.16
2023-03-22T05:36:15.001Z,45.15
2023-03-22T05:38:44.737Z,45.18
2023-03-22T05:41:14.405Z,45.23
2023-03-22T05:43:42.605Z,45.10
2023-03-22T05:46:12.346Z,45.21
2023-03-22T05:48:41.108Z,45.17
2023-03-22T05:51:09.878Z,45.05
2023-03-22T05:53:38.056Z,45.16
2023-03-22T05:56:09.980Z,45.12
2023-03-22T05:58:39.784Z,45.08
2023-03-22T06:01:09.363Z,45.08
2023-03-22T06:03:37.402Z,44.91
2023-03-22T06:06:06.825Z,44.80
2023-03-22T06:08:35.019Z,45.00
2023-03-22T06:11:02.932Z,44.74
2023-03-22T06:13:31.001Z,44.95
2023-03-22T06:16:02.734Z,44.99
2023-03-22T06:18:31.590Z,44.86
2023-03-22T06:21:00.575Z,44.82
2023-03-22T06:23:28.990Z,44.88
2023-03-22T06:25:56.980Z,45.29
2023-03-22T06:28:29.491Z,45.47
2023-03-22T06:30:57.451Z,45.42
2023-03-22T06:33:26.951Z,45.37
2023-03-22T06:35:55.044Z,45.30
2023-03-22T06:38:22.946Z,45.28
2023-03-22T06:40:50.881Z,45.16
2023-03-22T06:43:18.848Z,45.11
2023-03-22T06:45:47.462Z,45.32
2023-03-22T06:48:15.941Z,45.41
2023-03-22T06:50:46.251Z,45.81
2023-03-22T06:53:14.402Z,45.58
2023-03-22T06:55:42.318Z,45.51
2023-03-22T06:58:10.467Z,45.59
2023-03-22T07:00:39.315Z,45.50
2023-03-22T07:03:07.532Z,45.48
2023-03-22T07:05:35.459Z,45.84
2023-03-22T07:08:04.918Z,46.20
2023-03-22T07:10:32.840Z,46.08
2023-03-22T07:13:04.088Z,45.83
2023-03-22T07:15:33.062Z,46.03
2023-03-22T07:18:01.504Z,45.82
2023-03-22T07:20:29.530Z,45.96
2023-03-22T07:22:57.459Z,45.85
2023-03-22T07:25:26.870Z,45.54
2023-03-22T07:27:57.808Z,45.59
2023-03-22T07:30:25.897Z,45.45
2023-03-22T07:32:53.865Z,45.46
2023-03-22T07:35:21.817Z,45.53
2023-03-22T07:37:49.874Z,45.34
2023-03-22T07:40:17.826Z,45.42
2023-03-22T07:42:49.135Z,45.40
2023-03-22T07:45:17.579Z,45.47
2023-03-22T07:47:46.166Z,45.44
2023-03-22T07:50:14.811Z,45.57
2023-03-22T07:52:42.983Z,45.50
2023-03-22T07:55:13.083Z,45.44
2023-03-22T07:57:41.287Z,45.30
2023-03-22T08:00:15.590Z,45.37
2023-03-22T08:02:46.359Z,45.30
2023-03-22T08:05:14.300Z,45.37
2023-03-22T08:07:43.525Z,45.40
2023-03-22T08:10:11.953Z,45.36
2023-03-22T08:12:39.890Z,45.27
2023-03-22T08:15:09.339Z,45.24
2023-03-22T08:17:38.721Z,45.38
2023-03-22T08:20:09.017Z,45.36
2023-03-22T08:22:38.299Z,45.37
2023-03-22T08:25:07.199Z,45.36
2023-03-22T08:27:35.330Z,45.18
2023-03-22T08:30:03.809Z,45.95
2023-03-22T08:32:31.729Z,45.80
2023-03-22T08:35:01.096Z,44.12
2023-03-22T08:37:31.401Z,45.37
2023-03-22T08:39:59.614Z,45.92
2023-03-22T08:42:27.730Z,45.93
2023-03-22T08:44:55.672Z,45.92
2023-03-22T08:47:23.616Z,45.76
2023-03-22T08:49:51.588Z,45.51
2023-03-22T08:52:20.918Z,45.41
2023-03-22T08:54:48.977Z,45.39
2023-03-22T08:57:17.012Z,45.28
2023-03-22T08:59:44.915Z,45.11
2023-03-22T09:02:13.019Z,45.24
2023-03-22T09:04:41.159Z,45.07
2023-03-22T09:07:09.105Z,45.12
2023-03-22T09:09:40.992Z,45.05
2023-03-22T09:12:11.709Z,45.05
2023-03-22T09:14:39.694Z,45.19
2023-03-22T09:17:07.888Z,46.12
2023-03-22T09:19:36.913Z,45.44
2023-03-22T09:22:04.923Z,45.27
2023-03-22T09:24:32.941Z,45.26
2023-03-22T09:27:02.203Z,45.05
2023-03-22T09:29:30.659Z,45.34
2023-03-22T09:31:58.758Z,45.77
2023-03-22T09:34:27.105Z,45.31
2023-03-22T09:36:57.398Z,45.54
2023-03-22T09:39:26.224Z,45.22
2023-03-22T09:41:56.971Z,45.91
2023-03-22T09:44:31.381Z,45.95
2023-03-22T09:47:02.143Z,45.56
2023-03-22T09:49:47.190Z,45.19
2023-03-22T09:52:20.960Z,45.17
2023-03-22T09:54:51.523Z,45.05
2023-03-22T09:57:27.254Z,44.93
2023-03-22T10:00:07.904Z,44.89
2023-03-22T10:02:54.667Z,44.76
2023-03-22T10:05:30.855Z,46.24
2023-03-22T10:08:25.585Z,45.74
2023-03-22T10:10:53.817Z,45.22
2023-03-22T10:13:26.882Z,45.23
2023-03-22T10:15:59.107Z,45.14
2023-03-22T10:18:27.656Z,45.73
2023-03-22T10:21:00.363Z,46.69
2023-03-22T10:23:33.804Z,46.13
2023-03-22T10:26:03.675Z,45.79
2023-03-22T10:28:38.702Z,45.91
2023-03-22T10:31:14.900Z,46.01
2023-03-22T10:33:50.455Z,45.62
2023-03-22T10:36:23.539Z,45.61
2023-03-22T10:38:54.371Z,45.71
2023-03-22T10:41:27.571Z,45.54
2023-03-22T10:43:58.989Z,45.51
2023-03-22T10:46:33.409Z,45.59
2023-03-22T10:49:03.560Z,45.46
2023-03-22T10:51:36.387Z,45.62
2023-03-22T10:54:05.720Z,45.65
2023-03-22T10:56:33.736Z,45.57
2023-03-22T10:59:01.708Z,45.69
2023-03-22T11:01:33.139Z,45.43
2023-03-22T11:04:10.054Z,45.65
2023-03-22T11:06:41.310Z,45.56
2023-03-22T11:09:14.212Z,45.74
2023-03-22T11:11:50.626Z,45.64
2023-03-22T11:14:24.284Z,45.90
2023-03-22T11:16:56.605Z,45.77
2023-03-22T11:19:26.290Z,45.77
2023-03-22T11:21:55.685Z,45.73
2023-03-22T11:24:26.510Z,45.60
2023-03-22T11:27:06.263Z,45.77
2023-03-22T11:29:41.899Z,45.67
2023-03-22T11:32:26.563Z,45.76
2023-03-22T11:35:03.371Z,45.65
2023-03-22T11:37:31.425Z,45.65
2023-03-22T11:40:05.186Z,45.84
2023-03-22T11:42:35.881Z,45.72
2023-03-22T11:45:04.058Z,45.77
2023-03-22T11:47:40.030Z,45.89
2023-03-22T11:50:26.753Z,45.65
2023-03-22T11:52:57.477Z,45.83
2023-03-22T11:55:26.393Z,45.70
2023-03-22T11:57:56.962Z,45.81
2023-03-22T12:00:27.787Z,45.72
2023-03-22T12:03:01.949Z,45.91
2023-03-22T12:05:32.399Z,45.83
2023-03-22T12:08:04.651Z,45.24
2023-03-22T12:10:34.337Z,45.48
2023-03-22T12:13:08.633Z,45.51
2023-03-22T12:15:42.131Z,47.31
2023-03-22T12:18:17.963Z,47.53
2023-03-22T12:20:50.677Z,47.49
2023-03-22T12:23:20.479Z,47.20
2023-03-22T12:25:52.612Z,47.31
2023-03-22T12:28:24.250Z,47.25
2023-03-22T12:30:54.242Z,47.29
2023-03-22T12:33:26.691Z,47.17
2023-03-22T12:35:59.044Z,47.14
2023-03-22T12:38:34.066Z,47.11
2023-03-22T12:41:05.971Z,47.08
2023-03-22T12:43:47.866Z,47.01
2023-03-22T12:46:20.458Z,46.33
2023-03-22T12:48:53.824Z,46.21
2023-03-22T12:51:21.788Z,46.54
2023-03-22T12:53:53.647Z,46.54
2023-03-22T12:56:27.280Z,46.51
2023-03-22T12:59:00.192Z,46.67
2023-03-22T13:01:34.621Z,46.66
2023-03-22T13:04:28.327Z,46.70
2023-03-22T13:07:08.734Z,46.56
2023-03-22T13:09:42.967Z,46.64
2023-03-22T13:12:34.986Z,46.49
2023-03-22T13:15:42.111Z,46.51
2023-03-22T13:18:31.892Z,46.51
2023-03-22T13:21:14.919Z,46.43
2023-03-22T13:24:19.513Z,46.45
2023-03-22T13:26:52.873Z,46.64
2023-03-22T13:29:24.455Z,46.72
2023-03-22T13:31:59.017Z,46.48
2023-03-22T13:34:39.255Z,46.55
2023-03-22T13:37:11.953Z,46.56
2023-03-22T13:39:40.990Z,46.66
2023-03-22T13:42:21.113Z,46.27
2023-03-22T13:44:58.567Z,46.00
2023-03-22T13:47:35.887Z,46.04
2023-03-22T13:50:12.601Z,46.61
2023-03-22T13:52:44.197Z,46.58
2023-03-22T13:55:32.205Z,46.69
2023-03-22T13:58:01.827Z,46.66
2023-03-22T14:00:54.421Z,46.69
2023-03-22T14:03:27.892Z,46.60
2023-03-22T14:06:06.529Z,46.58
2023-03-22T14:08:38.554Z,46.49
2023-03-22T14:11:22.252Z,46.57
2023-03-22T14:13:56.230Z,46.59
2023-03-22T14:16:40.450Z,46.79
2023-03-22T14:19:14.874Z,46.69
